La Palma > ESTACION METEOROLÓGICA Los Llanos de Aridane

DATOS ACTUALES Online

Ultima actulizacion 9 minutos

20.5 ºC

Temperatura

89

Humedad (%)

1019.9

Presión (mb)

0

Precipitación (mm)

0 ENE

Viento (Km/h)

DATOS DIARIOS

Temperatura últimas 24 horas (ºC)

Humedad últimas 24 horas (%)

Presión atmosférica últimas 24 horas (mb)

Precipitaciones últimas 23 horas (mm)

Viento últimas 24 horas (Km/h)

Hora Temperatura (°C) ºC Precipitación (mm) mm Presión (mb) mb Humedad (%) % Viento (Km/h) km/h
15 - 23:00 20.5 0.5 1021 88 0 NW
16 - 00:00 20.3 0 1020 89 0 SSW
16 - 01:00 20.1 0 1020 90 0 SSW
16 - 02:00 20 0 1020 89 0 SW
16 - 03:00 19.7 0 1019 90 0 N
16 - 04:00 19.6 0 1019 91 0 W
16 - 05:00 19.5 0 1019 91 0 SSE
16 - 06:00 19.8 0 1019 91 0 WNW
16 - 07:00 19.7 0 1019 89 0 W
16 - 08:00 20.8 0 1019 83 0 E
16 - 09:00 21.9 0 1019 82 0 E
16 - 10:00 23.4 0 1019 78 0 S
16 - 11:00 25.2 0 1020 72 0 N
16 - 12:00 26.3 0 1020 70 0 SSE
16 - 13:00 26.1 0 1020 70 0 S
16 - 14:00 27.4 0 1019 62 0 WSW
16 - 15:00 27.6 0 1019 64 0 S
16 - 16:00 27.9 0 1019 67 0 SW
16 - 17:00 26.9 0 1018 69 0 SSE
16 - 18:00 26.8 0 1018 70 0 N
16 - 19:00 25.5 0 1018 72 0 S
16 - 20:00 22 0 1019 82 0 SSW
16 - 21:00 20.8 0 1019 88 0 NW
16 - 22:00 21 0 1020 86 0 WNW
16 - 23:00 20.5 0 1020 89 0 ENE
Apalmet utiliza cookies propias y de terceros para mejorar la usabilidad y la experiencia web. Política de cookies.